sensor_id;sensor_type;location;lat;lon;timestamp;temperature;humidity
67557;DHT22;54387;53.526;49.300;2023-08-17T00:01:58;19.70;72.00
67557;DHT22;54387;53.526;49.300;2023-08-17T00:04:24;19.70;71.90
67557;DHT22;54387;53.526;49.300;2023-08-17T00:06:51;19.70;71.90
67557;DHT22;54387;53.526;49.300;2023-08-17T00:09:17;19.70;71.90
67557;DHT22;54387;53.526;49.300;2023-08-17T00:11:43;19.70;71.80
67557;DHT22;54387;53.526;49.300;2023-08-17T00:14:10;19.70;71.70
67557;DHT22;54387;53.526;49.300;2023-08-17T00:16:36;19.70;71.70
67557;DHT22;54387;53.526;49.300;2023-08-17T00:19:02;19.70;71.70
67557;DHT22;54387;53.526;49.300;2023-08-17T00:21:29;19.60;71.70
67557;DHT22;54387;53.526;49.300;2023-08-17T00:23:55;19.60;71.70
67557;DHT22;54387;53.526;49.300;2023-08-17T00:26:22;19.50;71.70
67557;DHT22;54387;53.526;49.300;2023-08-17T00:28:48;19.40;71.80
67557;DHT22;54387;53.526;49.300;2023-08-17T00:31:14;19.40;71.90
67557;DHT22;54387;53.526;49.300;2023-08-17T00:33:41;19.30;72.10
67557;DHT22;54387;53.526;49.300;2023-08-17T00:36:07;19.20;72.10
67557;DHT22;54387;53.526;49.300;2023-08-17T00:38:34;19.20;72.30
67557;DHT22;54387;53.526;49.300;2023-08-17T00:41:00;19.10;72.60
67557;DHT22;54387;53.526;49.300;2023-08-17T00:43:26;19.10;72.70
67557;DHT22;54387;53.526;49.300;2023-08-17T00:45:52;19.00;72.90
67557;DHT22;54387;53.526;49.300;2023-08-17T00:48:19;19.00;73.10
67557;DHT22;54387;53.526;49.300;2023-08-17T00:50:45;19.00;73.20
67557;DHT22;54387;53.526;49.300;2023-08-17T00:53:14;19.00;73.20
67557;DHT22;54387;53.526;49.300;2023-08-17T00:55:42;18.90;73.10
67557;DHT22;54387;53.526;49.300;2023-08-17T00:58:08;18.90;73.10
67557;DHT22;54387;53.526;49.300;2023-08-17T01:00:35;18.90;73.30
67557;DHT22;54387;53.526;49.300;2023-08-17T01:03:01;18.90;73.40
67557;DHT22;54387;53.526;49.300;2023-08-17T01:05:27;18.80;73.50
67557;DHT22;54387;53.526;49.300;2023-08-17T01:07:54;18.80;73.50
67557;DHT22;54387;53.526;49.300;2023-08-17T01:10:20;18.80;73.80
67557;DHT22;54387;53.526;49.300;2023-08-17T01:15:33;18.70;73.60
67557;DHT22;54387;53.526;49.300;2023-08-17T01:18:04;18.70;73.80
67557;DHT22;54387;53.526;49.300;2023-08-17T01:20:32;18.70;73.70
67557;DHT22;54387;53.526;49.300;2023-08-17T01:23:06;18.70;73.70
67557;DHT22;54387;53.526;49.300;2023-08-17T01:25:32;18.60;73.80
67557;DHT22;54387;53.526;49.300;2023-08-17T01:28:04;18.60;73.70
67557;DHT22;54387;53.526;49.300;2023-08-17T01:30:33;18.60;73.70
67557;DHT22;54387;53.526;49.300;2023-08-17T01:33:08;18.60;73.80
67557;DHT22;54387;53.526;49.300;2023-08-17T01:38:27;18.50;74.40
67557;DHT22;54387;53.526;49.300;2023-08-17T01:40:55;18.50;74.20
67557;DHT22;54387;53.526;49.300;2023-08-17T01:43:23;18.50;74.60
67557;DHT22;54387;53.526;49.300;2023-08-17T01:45:50;18.50;74.60
67557;DHT22;54387;53.526;49.300;2023-08-17T01:48:16;18.60;74.60
67557;DHT22;54387;53.526;49.300;2023-08-17T01:50:42;18.60;74.90
67557;DHT22;54387;53.526;49.300;2023-08-17T01:53:09;18.60;75.00
67557;DHT22;54387;53.526;49.300;2023-08-17T01:55:35;18.60;74.90
67557;DHT22;54387;53.526;49.300;2023-08-17T01:58:02;18.60;75.00
67557;DHT22;54387;53.526;49.300;2023-08-17T02:00:28;18.70;75.20
67557;DHT22;54387;53.526;49.300;2023-08-17T02:02:54;18.70;75.30
67557;DHT22;54387;53.526;49.300;2023-08-17T02:05:20;18.80;75.30
67557;DHT22;54387;53.526;49.300;2023-08-17T02:07:47;18.90;75.20
67557;DHT22;54387;53.526;49.300;2023-08-17T02:10:13;18.90;75.10
67557;DHT22;54387;53.526;49.300;2023-08-17T02:12:39;18.90;75.20
67557;DHT22;54387;53.526;49.300;2023-08-17T02:15:05;19.00;75.20
67557;DHT22;54387;53.526;49.300;2023-08-17T02:17:32;19.00;75.10
67557;DHT22;54387;53.526;49.300;2023-08-17T02:19:58;19.00;75.20
67557;DHT22;54387;53.526;49.300;2023-08-17T02:22:24;19.00;75.20
67557;DHT22;54387;53.526;49.300;2023-08-17T02:24:51;19.00;75.30
67557;DHT22;54387;53.526;49.300;2023-08-17T02:27:17;18.90;75.50
67557;DHT22;54387;53.526;49.300;2023-08-17T02:29:43;18.90;75.60
67557;DHT22;54387;53.526;49.300;2023-08-17T02:32:09;18.90;75.80
67557;DHT22;54387;53.526;49.300;2023-08-17T02:34:36;18.90;75.90
67557;DHT22;54387;53.526;49.300;2023-08-17T02:37:02;18.90;75.80
67557;DHT22;54387;53.526;49.300;2023-08-17T02:39:28;18.90;76.10
67557;DHT22;54387;53.526;49.300;2023-08-17T02:41:55;18.90;76.10
67557;DHT22;54387;53.526;49.300;2023-08-17T02:44:21;18.90;76.10
67557;DHT22;54387;53.526;49.300;2023-08-17T02:46:47;18.90;76.20
67557;DHT22;54387;53.526;49.300;2023-08-17T02:49:13;18.90;76.30
67557;DHT22;54387;53.526;49.300;2023-08-17T02:51:40;18.90;76.50
67557;DHT22;54387;53.526;49.300;2023-08-17T02:54:06;19.00;76.70
67557;DHT22;54387;53.526;49.300;2023-08-17T02:56:33;19.10;76.80
67557;DHT22;54387;53.526;49.300;2023-08-17T02:58:59;19.10;76.70
67557;DHT22;54387;53.526;49.300;2023-08-17T03:01:25;19.30;76.60
67557;DHT22;54387;53.526;49.300;2023-08-17T03:03:51;19.40;76.40
67557;DHT22;54387;53.526;49.300;2023-08-17T03:06:18;19.50;76.20
67557;DHT22;54387;53.526;49.300;2023-08-17T03:08:44;19.50;75.90
67557;DHT22;54387;53.526;49.300;2023-08-17T03:11:10;19.70;75.90
67557;DHT22;54387;53.526;49.300;2023-08-17T03:13:36;19.80;75.70
67557;DHT22;54387;53.526;49.300;2023-08-17T03:16:02;19.80;75.50
67557;DHT22;54387;53.526;49.300;2023-08-17T03:18:29;19.90;75.20
67557;DHT22;54387;53.526;49.300;2023-08-17T03:20:55;20.00;74.80
67557;DHT22;54387;53.526;49.300;2023-08-17T03:23:21;20.10;74.50
67557;DHT22;54387;53.526;49.300;2023-08-17T03:25:51;20.10;74.40
67557;DHT22;54387;53.526;49.300;2023-08-17T03:28:17;20.20;74.20
67557;DHT22;54387;53.526;49.300;2023-08-17T03:30:43;20.30;73.80
67557;DHT22;54387;53.526;49.300;2023-08-17T03:33:10;20.40;73.40
67557;DHT22;54387;53.526;49.300;2023-08-17T03:35:36;20.50;73.20
67557;DHT22;54387;53.526;49.300;2023-08-17T03:38:02;20.60;73.10
67557;DHT22;54387;53.526;49.300;2023-08-17T03:40:29;20.70;72.50
67557;DHT22;54387;53.526;49.300;2023-08-17T03:42:55;20.80;72.00
67557;DHT22;54387;53.526;49.300;2023-08-17T03:45:21;20.90;71.80
67557;DHT22;54387;53.526;49.300;2023-08-17T03:47:47;21.00;71.80
67557;DHT22;54387;53.526;49.300;2023-08-17T03:50:14;21.20;71.50
67557;DHT22;54387;53.526;49.300;2023-08-17T03:52:40;21.30;71.90
67557;DHT22;54387;53.526;49.300;2023-08-17T03:55:06;21.50;71.00
67557;DHT22;54387;53.526;49.300;2023-08-17T03:57:33;21.60;70.40
67557;DHT22;54387;53.526;49.300;2023-08-17T03:59:59;21.70;70.00
67557;DHT22;54387;53.526;49.300;2023-08-17T04:02:25;21.90;70.00
67557;DHT22;54387;53.526;49.300;2023-08-17T04:04:51;22.00;69.10
67557;DHT22;54387;53.526;49.300;2023-08-17T04:07:21;22.10;68.80
67557;DHT22;54387;53.526;49.300;2023-08-17T04:09:48;22.20;68.10
67557;DHT22;54387;53.526;49.300;2023-08-17T04:12:14;22.30;68.00
67557;DHT22;54387;53.526;49.300;2023-08-17T04:14:40;22.40;67.90
67557;DHT22;54387;53.526;49.300;2023-08-17T04:17:07;22.50;67.10
67557;DHT22;54387;53.526;49.300;2023-08-17T04:19:33;22.50;66.80
67557;DHT22;54387;53.526;49.300;2023-08-17T04:21:59;22.50;67.00
67557;DHT22;54387;53.526;49.300;2023-08-17T04:24:25;22.40;66.00
67557;DHT22;54387;53.526;49.300;2023-08-17T04:26:52;22.30;65.90
67557;DHT22;54387;53.526;49.300;2023-08-17T04:29:18;22.20;65.90
67557;DHT22;54387;53.526;49.300;2023-08-17T04:31:44;22.10;65.90
67557;DHT22;54387;53.526;49.300;2023-08-17T04:34:11;22.00;66.10
67557;DHT22;54387;53.526;49.300;2023-08-17T04:36:40;22.00;66.40
67557;DHT22;54387;53.526;49.300;2023-08-17T04:39:06;22.00;66.30
67557;DHT22;54387;53.526;49.300;2023-08-17T04:41:32;22.10;66.00
67557;DHT22;54387;53.526;49.300;2023-08-17T04:43:58;22.30;65.80
67557;DHT22;54387;53.526;49.300;2023-08-17T04:46:25;22.40;65.60
67557;DHT22;54387;53.526;49.300;2023-08-17T04:48:51;22.60;65.20
67557;DHT22;54387;53.526;49.300;2023-08-17T04:51:18;22.70;64.50
67557;DHT22;54387;53.526;49.300;2023-08-17T04:53:44;22.80;64.30
67557;DHT22;54387;53.526;49.300;2023-08-17T04:56:10;22.80;64.20
67557;DHT22;54387;53.526;49.300;2023-08-17T04:58:37;22.90;64.10
67557;DHT22;54387;53.526;49.300;2023-08-17T05:01:03;22.80;63.80
67557;DHT22;54387;53.526;49.300;2023-08-17T05:03:29;22.80;63.90
67557;DHT22;54387;53.526;49.300;2023-08-17T05:05:57;22.80;63.70
67557;DHT22;54387;53.526;49.300;2023-08-17T05:08:23;22.70;63.10
67557;DHT22;54387;53.526;49.300;2023-08-17T05:10:49;22.70;63.00
67557;DHT22;54387;53.526;49.300;2023-08-17T05:13:15;22.70;62.90
67557;DHT22;54387;53.526;49.300;2023-08-17T05:15:42;22.80;63.00
67557;DHT22;54387;53.526;49.300;2023-08-17T05:18:08;22.80;62.80
67557;DHT22;54387;53.526;49.300;2023-08-17T05:20:34;22.80;62.80
67557;DHT22;54387;53.526;49.300;2023-08-17T05:23:01;22.80;62.70
67557;DHT22;54387;53.526;49.300;2023-08-17T05:25:27;22.90;62.60
67557;DHT22;54387;53.526;49.300;2023-08-17T05:27:55;22.90;62.80
67557;DHT22;54387;53.526;49.300;2023-08-17T05:30:21;23.00;62.80
67557;DHT22;54387;53.526;49.300;2023-08-17T05:32:47;23.10;62.60
67557;DHT22;54387;53.526;49.300;2023-08-17T05:35:14;23.10;62.40
67557;DHT22;54387;53.526;49.300;2023-08-17T05:37:40;23.20;62.20
67557;DHT22;54387;53.526;49.300;2023-08-17T05:40:06;23.30;62.00
67557;DHT22;54387;53.526;49.300;2023-08-17T05:42:34;23.40;61.80
67557;DHT22;54387;53.526;49.300;2023-08-17T05:45:01;23.50;61.80
67557;DHT22;54387;53.526;49.300;2023-08-17T05:47:27;23.50;61.50
67557;DHT22;54387;53.526;49.300;2023-08-17T05:49:53;23.60;61.00
67557;DHT22;54387;53.526;49.300;2023-08-17T05:52:20;23.70;61.20
67557;DHT22;54387;53.526;49.300;2023-08-17T05:54:46;23.80;61.20
67557;DHT22;54387;53.526;49.300;2023-08-17T05:57:13;23.80;61.00
67557;DHT22;54387;53.526;49.300;2023-08-17T05:59:39;23.90;60.80
67557;DHT22;54387;53.526;49.300;2023-08-17T06:02:05;24.10;60.20
67557;DHT22;54387;53.526;49.300;2023-08-17T06:04:31;24.20;60.00
67557;DHT22;54387;53.526;49.300;2023-08-17T06:06:58;24.40;59.40
67557;DHT22;54387;53.526;49.300;2023-08-17T06:09:24;24.60;59.10
67557;DHT22;54387;53.526;49.300;2023-08-17T06:11:51;24.80;58.60
67557;DHT22;54387;53.526;49.300;2023-08-17T06:14:17;24.90;58.30
67557;DHT22;54387;53.526;49.300;2023-08-17T06:16:43;25.10;57.60
67557;DHT22;54387;53.526;49.300;2023-08-17T06:19:09;25.20;57.20
67557;DHT22;54387;53.526;49.300;2023-08-17T06:21:36;25.20;56.40
67557;DHT22;54387;53.526;49.300;2023-08-17T06:24:02;25.40;56.40
67557;DHT22;54387;53.526;49.300;2023-08-17T06:26:30;25.40;56.00
67557;DHT22;54387;53.526;49.300;2023-08-17T06:28:56;25.50;55.70
67557;DHT22;54387;53.526;49.300;2023-08-17T06:31:23;25.60;55.30
67557;DHT22;54387;53.526;49.300;2023-08-17T06:33:53;25.70;54.90
67557;DHT22;54387;53.526;49.300;2023-08-17T06:36:20;25.80;54.60
67557;DHT22;54387;53.526;49.300;2023-08-17T06:38:47;25.80;54.10
67557;DHT22;54387;53.526;49.300;2023-08-17T06:41:13;25.90;53.90
67557;DHT22;54387;53.526;49.300;2023-08-17T06:43:39;25.90;53.60
67557;DHT22;54387;53.526;49.300;2023-08-17T06:46:06;25.90;53.50
67557;DHT22;54387;53.526;49.300;2023-08-17T06:48:32;26.00;53.40
67557;DHT22;54387;53.526;49.300;2023-08-17T06:50:59;26.20;53.10
67557;DHT22;54387;53.526;49.300;2023-08-17T06:53:25;26.20;52.40
67557;DHT22;54387;53.526;49.300;2023-08-17T06:55:51;26.30;51.80
67557;DHT22;54387;53.526;49.300;2023-08-17T06:58:18;26.30;51.40
67557;DHT22;54387;53.526;49.300;2023-08-17T07:00:44;26.40;51.50
67557;DHT22;54387;53.526;49.300;2023-08-17T07:03:11;26.50;51.30
67557;DHT22;54387;53.526;49.300;2023-08-17T07:05:37;26.60;51.20
67557;DHT22;54387;53.526;49.300;2023-08-17T07:08:03;26.70;50.80
67557;DHT22;54387;53.526;49.300;2023-08-17T07:10:30;26.80;49.70
67557;DHT22;54387;53.526;49.300;2023-08-17T07:12:56;26.80;49.40
67557;DHT22;54387;53.526;49.300;2023-08-17T07:15:23;26.90;49.10
67557;DHT22;54387;53.526;49.300;2023-08-17T07:17:49;27.00;48.70
67557;DHT22;54387;53.526;49.300;2023-08-17T07:20:15;27.00;48.80
67557;DHT22;54387;53.526;49.300;2023-08-17T07:22:42;27.00;48.20
67557;DHT22;54387;53.526;49.300;2023-08-17T07:25:08;27.10;47.70
67557;DHT22;54387;53.526;49.300;2023-08-17T07:27:34;27.10;47.50
67557;DHT22;54387;53.526;49.300;2023-08-17T07:30:01;27.10;47.30
67557;DHT22;54387;53.526;49.300;2023-08-17T07:32:27;27.20;47.50
67557;DHT22;54387;53.526;49.300;2023-08-17T07:34:53;27.20;47.20
67557;DHT22;54387;53.526;49.300;2023-08-17T07:37:20;27.30;47.40
67557;DHT22;54387;53.526;49.300;2023-08-17T07:39:49;27.40;46.90
67557;DHT22;54387;53.526;49.300;2023-08-17T07:42:16;27.50;46.40
67557;DHT22;54387;53.526;49.300;2023-08-17T07:44:43;27.50;46.50
67557;DHT22;54387;53.526;49.300;2023-08-17T07:47:09;27.60;46.40
67557;DHT22;54387;53.526;49.300;2023-08-17T07:49:35;27.60;46.30
67557;DHT22;54387;53.526;49.300;2023-08-17T07:52:02;27.70;46.00
67557;DHT22;54387;53.526;49.300;2023-08-17T07:54:28;27.80;45.60
67557;DHT22;54387;53.526;49.300;2023-08-17T07:56:54;27.90;45.30
67557;DHT22;54387;53.526;49.300;2023-08-17T07:59:21;28.00;45.20
67557;DHT22;54387;53.526;49.300;2023-08-17T08:01:48;28.10;44.70
67557;DHT22;54387;53.526;49.300;2023-08-17T08:04:15;28.10;43.80
67557;DHT22;54387;53.526;49.300;2023-08-17T08:06:42;28.20;43.70
67557;DHT22;54387;53.526;49.300;2023-08-17T08:09:08;28.30;43.90
67557;DHT22;54387;53.526;49.300;2023-08-17T08:11:35;28.30;43.20
67557;DHT22;54387;53.526;49.300;2023-08-17T08:14:01;28.40;42.70
67557;DHT22;54387;53.526;49.300;2023-08-17T08:16:28;28.50;42.40
67557;DHT22;54387;53.526;49.300;2023-08-17T08:18:56;28.60;41.80
67557;DHT22;54387;53.526;49.300;2023-08-17T08:21:22;28.60;41.00
67557;DHT22;54387;53.526;49.300;2023-08-17T08:23:49;28.60;41.20
67557;DHT22;54387;53.526;49.300;2023-08-17T08:26:15;28.60;41.20
67557;DHT22;54387;53.526;49.300;2023-08-17T08:28:41;28.70;40.90
67557;DHT22;54387;53.526;49.300;2023-08-17T08:31:07;28.80;40.40
67557;DHT22;54387;53.526;49.300;2023-08-17T08:33:34;28.80;40.10
67557;DHT22;54387;53.526;49.300;2023-08-17T08:36:00;28.80;39.70
67557;DHT22;54387;53.526;49.300;2023-08-17T08:38:27;28.90;39.80
67557;DHT22;54387;53.526;49.300;2023-08-17T08:40:55;29.00;39.70
67557;DHT22;54387;53.526;49.300;2023-08-17T08:43:21;29.00;39.10
67557;DHT22;54387;53.526;49.300;2023-08-17T08:45:48;29.00;38.80
67557;DHT22;54387;53.526;49.300;2023-08-17T08:48:15;29.10;38.60
67557;DHT22;54387;53.526;49.300;2023-08-17T08:50:43;29.20;38.20
67557;DHT22;54387;53.526;49.300;2023-08-17T08:53:11;29.30;38.30
67557;DHT22;54387;53.526;49.300;2023-08-17T08:55:38;29.30;38.20
67557;DHT22;54387;53.526;49.300;2023-08-17T08:58:05;29.50;37.80
67557;DHT22;54387;53.526;49.300;2023-08-17T09:00:33;29.50;37.10
67557;DHT22;54387;53.526;49.300;2023-08-17T09:03:01;29.60;36.90
67557;DHT22;54387;53.526;49.300;2023-08-17T09:05:27;29.60;36.80
67557;DHT22;54387;53.526;49.300;2023-08-17T09:07:54;29.80;36.90
67557;DHT22;54387;53.526;49.300;2023-08-17T09:10:20;29.90;36.70
67557;DHT22;54387;53.526;49.300;2023-08-17T09:12:47;29.90;36.20
67557;DHT22;54387;53.526;49.300;2023-08-17T09:15:14;30.00;36.10
67557;DHT22;54387;53.526;49.300;2023-08-17T09:17:41;30.10;35.90
67557;DHT22;54387;53.526;49.300;2023-08-17T09:20:08;30.20;36.00
67557;DHT22;54387;53.526;49.300;2023-08-17T09:22:41;30.50;35.70
67557;DHT22;54387;53.526;49.300;2023-08-17T09:25:09;30.80;35.30
67557;DHT22;54387;53.526;49.300;2023-08-17T09:27:37;31.30;35.60
67557;DHT22;54387;53.526;49.300;2023-08-17T09:30:10;31.80;34.20
67557;DHT22;54387;53.526;49.300;2023-08-17T09:32:37;32.40;34.10
67557;DHT22;54387;53.526;49.300;2023-08-17T09:35:03;33.00;33.80
67557;DHT22;54387;53.526;49.300;2023-08-17T09:37:32;33.70;33.20
67557;DHT22;54387;53.526;49.300;2023-08-17T09:39:58;35.10;31.30
67557;DHT22;54387;53.526;49.300;2023-08-17T09:42:24;36.80;30.00
67557;DHT22;54387;53.526;49.300;2023-08-17T09:44:51;38.60;29.00
67557;DHT22;54387;53.526;49.300;2023-08-17T09:47:21;39.60;28.30
67557;DHT22;54387;53.526;49.300;2023-08-17T09:49:51;40.30;27.10
67557;DHT22;54387;53.526;49.300;2023-08-17T09:52:21;39.60;26.60
67557;DHT22;54387;53.526;49.300;2023-08-17T09:54:48;39.10;26.70
67557;DHT22;54387;53.526;49.300;2023-08-17T09:57:15;39.60;26.80
67557;DHT22;54387;53.526;49.300;2023-08-17T09:59:41;40.90;26.60
67557;DHT22;54387;53.526;49.300;2023-08-17T10:02:12;42.20;26.00
67557;DHT22;54387;53.526;49.300;2023-08-17T10:04:41;42.90;25.80
67557;DHT22;54387;53.526;49.300;2023-08-17T10:07:11;43.50;26.20
67557;DHT22;54387;53.526;49.300;2023-08-17T10:09:39;43.70;25.30
67557;DHT22;54387;53.526;49.300;2023-08-17T10:12:12;42.80;25.70
67557;DHT22;54387;53.526;49.300;2023-08-17T10:14:43;41.50;25.70
67557;DHT22;54387;53.526;49.300;2023-08-17T10:17:13;40.20;25.90
67557;DHT22;54387;53.526;49.300;2023-08-17T10:20:14;40.80;26.30
67557;DHT22;54387;53.526;49.300;2023-08-17T10:22:44;43.00;24.70
67557;DHT22;54387;53.526;49.300;2023-08-17T10:25:13;45.60;24.80
67557;DHT22;54387;53.526;49.300;2023-08-17T10:27:41;47.30;24.50
67557;DHT22;54387;53.526;49.300;2023-08-17T10:30:08;48.90;24.10
67557;DHT22;54387;53.526;49.300;2023-08-17T10:32:35;50.20;22.90
67557;DHT22;54387;53.526;49.300;2023-08-17T10:35:02;51.00;22.60
67557;DHT22;54387;53.526;49.300;2023-08-17T10:37:29;51.70;21.70
67557;DHT22;54387;53.526;49.300;2023-08-17T10:39:55;51.80;21.10
67557;DHT22;54387;53.526;49.300;2023-08-17T10:42:31;52.00;21.00
67557;DHT22;54387;53.526;49.300;2023-08-17T10:44:58;52.20;21.10
67557;DHT22;54387;53.526;49.300;2023-08-17T10:47:28;53.00;21.30
67557;DHT22;54387;53.526;49.300;2023-08-17T10:52:25;54.80;21.30
67557;DHT22;54387;53.526;49.300;2023-08-17T10:54:52;55.30;20.90
67557;DHT22;54387;53.526;49.300;2023-08-17T10:57:27;55.60;20.30
67557;DHT22;54387;53.526;49.300;2023-08-17T11:02:39;55.60;20.40
67557;DHT22;54387;53.526;49.300;2023-08-17T11:05:06;55.60;20.40
67557;DHT22;54387;53.526;49.300;2023-08-17T11:07:40;55.10;20.50
67557;DHT22;54387;53.526;49.300;2023-08-17T11:12:45;54.90;20.40
67557;DHT22;54387;53.526;49.300;2023-08-17T11:15:11;54.40;20.30
67557;DHT22;54387;53.526;49.300;2023-08-17T11:17:38;54.30;20.30
67557;DHT22;54387;53.526;49.300;2023-08-17T11:20:04;54.60;20.20
67557;DHT22;54387;53.526;49.300;2023-08-17T11:22:31;54.50;20.00
67557;DHT22;54387;53.526;49.300;2023-08-17T11:24:57;53.60;20.20
67557;DHT22;54387;53.526;49.300;2023-08-17T11:27:24;51.90;20.30
67557;DHT22;54387;53.526;49.300;2023-08-17T11:29:51;50.30;20.20
67557;DHT22;54387;53.526;49.300;2023-08-17T11:32:17;48.40;20.70
67557;DHT22;54387;53.526;49.300;2023-08-17T11:34:44;46.30;21.20
67557;DHT22;54387;53.526;49.300;2023-08-17T11:37:13;44.70;21.90
67557;DHT22;54387;53.526;49.300;2023-08-17T11:39:40;43.20;22.30
67557;DHT22;54387;53.526;49.300;2023-08-17T11:42:07;42.10;23.00
67557;DHT22;54387;53.526;49.300;2023-08-17T11:44:33;41.20;23.30
67557;DHT22;54387;53.526;49.300;2023-08-17T11:47:00;40.50;23.80
67557;DHT22;54387;53.526;49.300;2023-08-17T11:49:26;39.90;24.40
67557;DHT22;54387;53.526;49.300;2023-08-17T11:51:53;39.10;24.90
67557;DHT22;54387;53.526;49.300;2023-08-17T11:54:19;38.20;25.30
67557;DHT22;54387;53.526;49.300;2023-08-17T11:56:47;37.50;25.60
67557;DHT22;54387;53.526;49.300;2023-08-17T11:59:14;36.90;26.00
67557;DHT22;54387;53.526;49.300;2023-08-17T12:01:44;36.30;26.30
67557;DHT22;54387;53.526;49.300;2023-08-17T12:04:10;36.00;26.80
67557;DHT22;54387;53.526;49.300;2023-08-17T12:06:42;35.80;27.30
67557;DHT22;54387;53.526;49.300;2023-08-17T12:09:09;35.60;27.40
67557;DHT22;54387;53.526;49.300;2023-08-17T12:11:35;35.50;27.50
67557;DHT22;54387;53.526;49.300;2023-08-17T12:14:08;35.40;27.60
67557;DHT22;54387;53.526;49.300;2023-08-17T12:16:44;35.40;27.70
67557;DHT22;54387;53.526;49.300;2023-08-17T12:19:11;35.30;28.00
67557;DHT22;54387;53.526;49.300;2023-08-17T12:21:37;35.30;28.20
67557;DHT22;54387;53.526;49.300;2023-08-17T12:24:06;35.30;28.20
67557;DHT22;54387;53.526;49.300;2023-08-17T12:26:33;35.40;28.40
67557;DHT22;54387;53.526;49.300;2023-08-17T12:29:00;35.50;28.40
67557;DHT22;54387;53.526;49.300;2023-08-17T12:31:29;35.60;28.30
67557;DHT22;54387;53.526;49.300;2023-08-17T12:33:55;35.70;28.30
67557;DHT22;54387;53.526;49.300;2023-08-17T12:36:22;35.60;28.10
67557;DHT22;54387;53.526;49.300;2023-08-17T12:38:48;35.60;28.20
67557;DHT22;54387;53.526;49.300;2023-08-17T12:41:14;35.60;28.20
67557;DHT22;54387;53.526;49.300;2023-08-17T12:43:42;35.90;28.50
67557;DHT22;54387;53.526;49.300;2023-08-17T12:46:08;36.80;28.20
67557;DHT22;54387;53.526;49.300;2023-08-17T12:48:35;38.20;27.40
67557;DHT22;54387;53.526;49.300;2023-08-17T12:51:01;39.10;26.50
67557;DHT22;54387;53.526;49.300;2023-08-17T12:53:28;39.60;26.20
67557;DHT22;54387;53.526;49.300;2023-08-17T12:55:59;40.00;26.00
67557;DHT22;54387;53.526;49.300;2023-08-17T12:58:26;40.30;25.70
67557;DHT22;54387;53.526;49.300;2023-08-17T13:00:52;40.90;25.50
67557;DHT22;54387;53.526;49.300;2023-08-17T13:03:20;41.70;25.20
67557;DHT22;54387;53.526;49.300;2023-08-17T13:05:47;42.20;25.00
67557;DHT22;54387;53.526;49.300;2023-08-17T13:08:13;41.90;24.80
67557;DHT22;54387;53.526;49.300;2023-08-17T13:10:39;41.20;24.90
67557;DHT22;54387;53.526;49.300;2023-08-17T13:13:06;40.40;25.00
67557;DHT22;54387;53.526;49.300;2023-08-17T13:15:32;39.50;25.20
67557;DHT22;54387;53.526;49.300;2023-08-17T13:17:59;38.60;25.50
67557;DHT22;54387;53.526;49.300;2023-08-17T13:20:26;37.80;25.90
67557;DHT22;54387;53.526;49.300;2023-08-17T13:22:52;37.00;26.30
67557;DHT22;54387;53.526;49.300;2023-08-17T13:25:18;36.40;26.80
67557;DHT22;54387;53.526;49.300;2023-08-17T13:27:45;35.80;27.20
67557;DHT22;54387;53.526;49.300;2023-08-17T13:30:11;35.30;27.50
67557;DHT22;54387;53.526;49.300;2023-08-17T13:32:42;34.70;27.70
67557;DHT22;54387;53.526;49.300;2023-08-17T13:35:09;34.30;27.90
67557;DHT22;54387;53.526;49.300;2023-08-17T13:37:36;33.90;28.10
67557;DHT22;54387;53.526;49.300;2023-08-17T13:40:03;33.50;28.40
67557;DHT22;54387;53.526;49.300;2023-08-17T13:42:30;33.20;29.00
67557;DHT22;54387;53.526;49.300;2023-08-17T13:44:56;32.90;29.30
67557;DHT22;54387;53.526;49.300;2023-08-17T13:47:23;32.60;29.60
67557;DHT22;54387;53.526;49.300;2023-08-17T13:49:49;32.20;29.70
67557;DHT22;54387;53.526;49.300;2023-08-17T13:52:16;32.00;30.00
67557;DHT22;54387;53.526;49.300;2023-08-17T13:54:42;31.70;30.30
67557;DHT22;54387;53.526;49.300;2023-08-17T13:57:08;31.40;30.50
67557;DHT22;54387;53.526;49.300;2023-08-17T13:59:35;31.10;30.80
67557;DHT22;54387;53.526;49.300;2023-08-17T14:02:01;30.90;31.10
67557;DHT22;54387;53.526;49.300;2023-08-17T14:04:27;30.60;31.10
67557;DHT22;54387;53.526;49.300;2023-08-17T14:06:54;30.30;31.30
67557;DHT22;54387;53.526;49.300;2023-08-17T14:09:20;30.10;31.50
67557;DHT22;54387;53.526;49.300;2023-08-17T14:11:47;29.90;31.50
67557;DHT22;54387;53.526;49.300;2023-08-17T14:14:13;29.70;31.70
67557;DHT22;54387;53.526;49.300;2023-08-17T14:16:41;29.50;31.90
67557;DHT22;54387;53.526;49.300;2023-08-17T14:19:07;29.40;32.10
67557;DHT22;54387;53.526;49.300;2023-08-17T14:21:34;29.20;32.30
67557;DHT22;54387;53.526;49.300;2023-08-17T14:24:01;29.10;32.60
67557;DHT22;54387;53.526;49.300;2023-08-17T14:26:27;28.90;33.00
67557;DHT22;54387;53.526;49.300;2023-08-17T14:28:53;28.70;34.00
67557;DHT22;54387;53.526;49.300;2023-08-17T14:31:20;28.60;34.40
67557;DHT22;54387;53.526;49.300;2023-08-17T14:33:48;28.40;34.70
67557;DHT22;54387;53.526;49.300;2023-08-17T14:36:15;28.30;34.60
67557;DHT22;54387;53.526;49.300;2023-08-17T14:38:43;28.20;34.70
67557;DHT22;54387;53.526;49.300;2023-08-17T14:41:10;28.10;34.90
67557;DHT22;54387;53.526;49.300;2023-08-17T14:43:36;28.00;36.40
67557;DHT22;54387;53.526;49.300;2023-08-17T14:46:02;27.90;36.80
67557;DHT22;54387;53.526;49.300;2023-08-17T14:48:29;27.80;37.70
67557;DHT22;54387;53.526;49.300;2023-08-17T14:50:55;27.70;37.40
67557;DHT22;54387;53.526;49.300;2023-08-17T14:53:21;27.60;37.70
67557;DHT22;54387;53.526;49.300;2023-08-17T14:55:50;27.60;38.00
67557;DHT22;54387;53.526;49.300;2023-08-17T14:58:17;27.40;38.30
67557;DHT22;54387;53.526;49.300;2023-08-17T15:00:44;27.40;39.50
67557;DHT22;54387;53.526;49.300;2023-08-17T15:03:11;27.30;40.20
67557;DHT22;54387;53.526;49.300;2023-08-17T15:05:37;27.20;39.00
67557;DHT22;54387;53.526;49.300;2023-08-17T15:08:04;27.10;39.20
67557;DHT22;54387;53.526;49.300;2023-08-17T15:10:30;27.10;40.10
67557;DHT22;54387;53.526;49.300;2023-08-17T15:12:58;27.00;40.00
67557;DHT22;54387;53.526;49.300;2023-08-17T15:15:24;27.00;40.50
67557;DHT22;54387;53.526;49.300;2023-08-17T15:17:51;27.00;40.60
67557;DHT22;54387;53.526;49.300;2023-08-17T15:20:17;26.90;40.60
67557;DHT22;54387;53.526;49.300;2023-08-17T15:22:43;26.90;41.40
67557;DHT22;54387;53.526;49.300;2023-08-17T15:25:09;26.80;41.30
67557;DHT22;54387;53.526;49.300;2023-08-17T15:27:35;26.70;41.80